createdAt,value
2018-07-15T00:01:11.946Z,101227.27
2018-07-15T00:03:39.811Z,101241.95
2018-07-15T00:06:07.529Z,101243.10
2018-07-15T00:08:35.583Z,101236.09
2018-07-15T00:11:03.266Z,101236.85
2018-07-15T00:13:30.820Z,101245.63
2018-07-15T00:15:58.508Z,101246.53
2018-07-15T00:18:26.147Z,101244.06
2018-07-15T00:20:53.759Z,101247.40
2018-07-15T00:23:21.857Z,101249.41
2018-07-15T00:25:49.540Z,101241.91
2018-07-15T00:28:17.230Z,101246.98
2018-07-15T00:30:45.057Z,101245.90
2018-07-15T00:33:12.696Z,101246.52
2018-07-15T00:35:40.327Z,101252.20
2018-07-15T00:38:08.300Z,101242.52
2018-07-15T00:40:35.935Z,101251.27
2018-07-15T00:43:03.533Z,101254.11
2018-07-15T00:45:31.367Z,101257.44
2018-07-15T00:47:59.038Z,101255.48
2018-07-15T00:50:26.660Z,101252.08
2018-07-15T00:52:54.457Z,101251.48
2018-07-15T00:55:22.159Z,101258.87
2018-07-15T00:57:49.742Z,101256.81
2018-07-15T01:01:23.324Z,101256.56
2018-07-15T01:03:51.162Z,101267.80
2018-07-15T01:06:18.906Z,101260.95
2018-07-15T01:08:46.543Z,101255.45
2018-07-15T01:11:14.177Z,101259.27
2018-07-15T01:13:42.230Z,101265.30
2018-07-15T01:16:09.860Z,101261.50
2018-07-15T01:18:37.530Z,101264.99
2018-07-15T01:21:05.503Z,101263.03
2018-07-15T01:23:33.123Z,101266.49
2018-07-15T01:26:00.674Z,101265.92
2018-07-15T01:28:28.293Z,101269.86
2018-07-15T01:30:55.923Z,101268.55
2018-07-15T01:33:23.585Z,101269.75
2018-07-15T01:35:51.590Z,101272.00
2018-07-15T01:38:19.213Z,101270.05
2018-07-15T01:40:46.804Z,101269.31
2018-07-15T01:43:14.749Z,101274.72
2018-07-15T01:45:42.386Z,101275.84
2018-07-15T01:48:09.934Z,101285.31
2018-07-15T01:50:37.701Z,101281.16
2018-07-15T01:53:05.343Z,101279.55
2018-07-15T01:55:32.959Z,101279.69
2018-07-15T01:58:00.918Z,101284.38
2018-07-15T02:00:28.533Z,101279.59
2018-07-15T02:02:56.181Z,101280.20
2018-07-15T02:05:24.067Z,101281.20
2018-07-15T02:08:22.393Z,101283.16
2018-07-15T02:10:50.402Z,101282.07
2018-07-15T02:13:17.991Z,101276.45
2018-07-15T02:15:45.685Z,101277.53
2018-07-15T02:18:13.711Z,101277.92
2018-07-15T02:20:41.329Z,101273.65
2018-07-15T02:23:08.970Z,101276.61
2018-07-15T02:25:36.896Z,101277.34
2018-07-15T02:28:04.458Z,101273.42
2018-07-15T02:30:32.008Z,101274.06
2018-07-15T02:32:59.900Z,101273.67
2018-07-15T02:35:27.505Z,101276.63
2018-07-15T02:37:55.164Z,101278.63
2018-07-15T02:40:23.099Z,101272.48
2018-07-15T02:42:50.761Z,101277.87
2018-07-15T02:45:18.393Z,101282.89
2018-07-15T02:47:46.263Z,101282.54
2018-07-15T02:50:13.888Z,101280.33
2018-07-15T02:52:41.521Z,101289.91
2018-07-15T02:55:09.609Z,101280.09
2018-07-15T02:57:37.258Z,101280.70
2018-07-15T03:00:05.030Z,101284.27
2018-07-15T03:02:33.010Z,101285.98
2018-07-15T03:05:00.617Z,101284.14
2018-07-15T03:07:28.383Z,101294.08
2018-07-15T03:09:56.315Z,101293.47
2018-07-15T03:12:23.897Z,101301.09
2018-07-15T03:14:51.477Z,101299.61
2018-07-15T03:17:19.563Z,101306.23
2018-07-15T03:19:47.109Z,101302.55
2018-07-15T03:22:14.702Z,101296.18
2018-07-15T03:24:42.878Z,101302.80
2018-07-15T03:27:10.664Z,101296.41
2018-07-15T03:29:38.276Z,101292.35
2018-07-15T03:32:06.050Z,101288.30
2018-07-15T03:34:33.693Z,101291.48
2018-07-15T03:37:01.290Z,101293.22
2018-07-15T03:39:29.286Z,101302.03
2018-07-15T03:41:56.907Z,101288.79
2018-07-15T03:44:24.534Z,101287.80
2018-07-15T03:46:52.464Z,101288.41
2018-07-15T03:49:20.106Z,101288.63
2018-07-15T03:51:47.739Z,101291.56
2018-07-15T03:54:15.851Z,101292.17
2018-07-15T03:56:43.434Z,101295.61
2018-07-15T03:59:11.040Z,101299.77
2018-07-15T04:01:39.074Z,101298.54
2018-07-15T04:04:06.598Z,101300.86
2018-07-15T04:06:34.136Z,101303.17
2018-07-15T04:09:02.427Z,101298.86
2018-07-15T04:11:30.016Z,101300.78
2018-07-15T04:13:57.658Z,101297.70
2018-07-15T04:16:25.698Z,101302.36
2018-07-15T04:18:53.351Z,101294.34
2018-07-15T04:21:20.982Z,101295.69
2018-07-15T04:23:49.032Z,101294.84
2018-07-15T04:26:16.662Z,101297.98
2018-07-15T04:28:44.274Z,101295.75
2018-07-15T04:31:12.284Z,101295.70
2018-07-15T04:33:39.901Z,101294.47
2018-07-15T04:36:07.520Z,101299.70
2018-07-15T04:38:35.430Z,101293.06
2018-07-15T04:41:03.137Z,101292.53
2018-07-15T04:43:30.717Z,101297.88
2018-07-15T04:45:58.663Z,101304.59
2018-07-15T04:48:26.292Z,101303.92
2018-07-15T04:50:53.855Z,101300.33
2018-07-15T04:53:21.814Z,101300.30
2018-07-15T04:55:49.424Z,101303.82
2018-07-15T04:58:17.054Z,101296.12
2018-07-15T05:00:44.982Z,101311.37
2018-07-15T05:03:12.642Z,101304.06
2018-07-15T05:05:40.243Z,101310.66
2018-07-15T05:08:08.159Z,101308.23
2018-07-15T05:10:36.017Z,101305.12
2018-07-15T05:13:03.680Z,101307.66
2018-07-15T05:15:31.489Z,101300.67
2018-07-15T05:17:59.101Z,101304.56
2018-07-15T05:20:26.642Z,101304.35
2018-07-15T05:22:54.616Z,101298.72
2018-07-15T05:25:22.272Z,101300.38
2018-07-15T05:27:49.925Z,101295.60
2018-07-15T05:30:18.067Z,101293.95
2018-07-15T05:32:45.677Z,101305.58
2018-07-15T05:35:13.241Z,101297.57
2018-07-15T05:37:41.020Z,101303.14
2018-07-15T05:40:08.628Z,101301.80
2018-07-15T05:42:36.253Z,101298.70
2018-07-15T05:45:04.221Z,101300.20
2018-07-15T05:47:31.856Z,101309.89
2018-07-15T05:49:59.567Z,101309.69
2018-07-15T05:52:27.569Z,101232.78
2018-07-15T05:54:55.215Z,101309.66
2018-07-15T05:57:22.914Z,101306.92
2018-07-15T05:59:50.956Z,101302.83
2018-07-15T06:02:18.553Z,101209.87
2018-07-15T06:04:46.181Z,101301.75
2018-07-15T06:07:14.219Z,101302.74
2018-07-15T06:09:41.868Z,101301.19
2018-07-15T06:12:09.731Z,101301.02
2018-07-15T06:14:37.621Z,101299.65
2018-07-15T06:17:05.302Z,101303.21
2018-07-15T06:19:32.945Z,101296.38
2018-07-15T06:22:01.029Z,101298.02
2018-07-15T06:24:28.546Z,101292.99
2018-07-15T06:26:56.164Z,101294.31
2018-07-15T06:29:24.147Z,101290.67
2018-07-15T06:31:51.788Z,101289.93
2018-07-15T06:34:19.466Z,101294.59
2018-07-15T06:36:47.379Z,101293.34
2018-07-15T06:39:15.025Z,101288.47
2018-07-15T06:41:42.682Z,101290.59
2018-07-15T06:44:10.779Z,101289.12
2018-07-15T06:46:38.341Z,101291.41
2018-07-15T06:49:06.022Z,101286.34
2018-07-15T06:51:33.912Z,101284.66
2018-07-15T06:54:01.677Z,101289.78
2018-07-15T06:56:29.126Z,101295.64
2018-07-15T06:58:57.826Z,101289.86
2018-07-15T07:01:25.541Z,101290.73
2018-07-15T07:03:53.141Z,101288.56
2018-07-15T07:06:21.071Z,101290.33
2018-07-15T07:08:49.713Z,101293.05
2018-07-15T07:11:17.395Z,101287.45
2018-07-15T07:13:45.644Z,101295.48
2018-07-15T07:16:13.285Z,101301.30
2018-07-15T07:18:40.910Z,101297.22
2018-07-15T07:21:08.821Z,101302.83
2018-07-15T07:23:36.417Z,101303.23
2018-07-15T07:26:04.073Z,101307.15
2018-07-15T07:28:32.014Z,101301.00
2018-07-15T07:30:59.659Z,101310.20
2018-07-15T07:33:27.275Z,101310.55
2018-07-15T07:35:55.017Z,101310.72
2018-07-15T07:38:22.653Z,101317.36
2018-07-15T07:40:50.263Z,101316.84
2018-07-15T07:43:18.090Z,101314.45
2018-07-15T07:45:45.635Z,101318.36
2018-07-15T07:48:13.248Z,101319.20
2018-07-15T07:50:41.059Z,101316.00
2018-07-15T07:53:08.703Z,101327.77
2018-07-15T07:55:36.338Z,101322.64
2018-07-15T07:58:04.305Z,101331.34
2018-07-15T08:00:31.897Z,101330.63
2018-07-15T08:02:59.529Z,101325.47
2018-07-15T08:05:27.415Z,101242.20
2018-07-15T08:07:55.003Z,101323.25
2018-07-15T08:10:22.578Z,101329.55
2018-07-15T08:12:50.574Z,101326.80
2018-07-15T08:15:18.351Z,101332.41
2018-07-15T08:17:45.904Z,101334.61
2018-07-15T08:20:13.663Z,101334.44
2018-07-15T08:22:41.316Z,101331.88
2018-07-15T08:25:09.018Z,101333.91
2018-07-15T08:27:36.987Z,101338.19
2018-07-15T08:30:15.797Z,101337.54
2018-07-15T08:32:43.594Z,101340.75
2018-07-15T08:35:11.205Z,101334.59
2018-07-15T08:37:39.030Z,101338.66
2018-07-15T08:40:06.995Z,101342.95
2018-07-15T08:42:34.547Z,101341.05
2018-07-15T08:45:02.218Z,101334.02
2018-07-15T08:47:30.178Z,101336.22
2018-07-15T08:49:57.836Z,101335.14
2018-07-15T08:52:25.487Z,101337.88
2018-07-15T08:54:53.334Z,101340.58
2018-07-15T08:57:21.055Z,101342.45
2018-07-15T08:59:48.683Z,101338.30
2018-07-15T09:02:16.694Z,101342.55
2018-07-15T09:04:44.341Z,101342.69
2018-07-15T09:07:11.986Z,101337.02
2018-07-15T09:09:40.334Z,101332.19
2018-07-15T09:12:07.929Z,101333.36
2018-07-15T09:14:35.531Z,101340.30
2018-07-15T09:17:03.959Z,101341.48
2018-07-15T09:19:31.630Z,101339.02
2018-07-15T09:21:59.255Z,101342.42
2018-07-15T09:24:27.267Z,101341.52
2018-07-15T09:26:54.870Z,101342.69
2018-07-15T09:29:22.458Z,101340.08
2018-07-15T09:31:50.281Z,101343.64
2018-07-15T09:34:18.097Z,101343.40
2018-07-15T09:36:45.708Z,101335.16
2018-07-15T09:39:13.601Z,101345.92
2018-07-15T09:41:41.274Z,101349.64
2018-07-15T09:44:08.881Z,101344.23
2018-07-15T09:46:36.757Z,101348.14
2018-07-15T09:49:04.653Z,101345.83
2018-07-15T09:51:32.226Z,101349.32
2018-07-15T09:54:00.349Z,101346.30
2018-07-15T09:56:27.938Z,101343.77
2018-07-15T09:58:55.514Z,101343.58
2018-07-15T10:01:23.663Z,101343.70
2018-07-15T10:03:51.289Z,101272.67
2018-07-15T10:06:18.914Z,101329.98
2018-07-15T10:08:46.974Z,101336.61
2018-07-15T10:11:14.595Z,101334.25
2018-07-15T10:13:42.321Z,101334.73
2018-07-15T10:16:10.368Z,101328.52
2018-07-15T10:18:38.080Z,101330.84
2018-07-15T10:21:05.657Z,101336.97
2018-07-15T10:23:33.589Z,101338.63
2018-07-15T10:26:01.177Z,101342.55
2018-07-15T10:28:28.756Z,101340.16
2018-07-15T10:30:56.726Z,101338.22
2018-07-15T10:33:24.286Z,101336.98
2018-07-15T10:35:51.902Z,101339.13
2018-07-15T10:38:19.755Z,101340.55
2018-07-15T10:40:47.392Z,101332.73
2018-07-15T10:43:15.068Z,101339.66
2018-07-15T10:45:42.846Z,101341.28
2018-07-15T10:48:10.498Z,101337.59
2018-07-15T10:50:38.079Z,101342.17
2018-07-15T10:53:06.223Z,101336.77
2018-07-15T10:55:34.031Z,101337.52
2018-07-15T10:58:01.577Z,101333.29
2018-07-15T11:00:29.604Z,101332.15
2018-07-15T11:02:57.212Z,101338.52
2018-07-15T11:05:24.770Z,101341.69
2018-07-15T11:07:52.725Z,101350.16
2018-07-15T11:10:20.351Z,101354.30
2018-07-15T11:12:47.948Z,101353.23
2018-07-15T11:15:16.141Z,101352.92
2018-07-15T11:17:43.728Z,101344.10
2018-07-15T11:20:11.567Z,101341.90
2018-07-15T11:22:39.447Z,101348.78
2018-07-15T11:25:07.093Z,101347.92
2018-07-15T11:27:34.691Z,101340.73
2018-07-15T11:30:02.848Z,101352.37
2018-07-15T11:32:30.480Z,101351.44
2018-07-15T11:34:58.107Z,101366.83
2018-07-15T11:37:25.986Z,101348.27
2018-07-15T11:39:53.634Z,101344.99
2018-07-15T11:42:21.241Z,101350.30
2018-07-15T11:44:49.036Z,101351.77
2018-07-15T11:47:16.639Z,101338.00
2018-07-15T11:49:44.298Z,101340.89
2018-07-15T11:52:12.078Z,101336.95
2018-07-15T11:54:39.696Z,101333.58
2018-07-15T11:57:07.319Z,101329.49
2018-07-15T11:59:35.330Z,101336.06
2018-07-15T12:02:03.003Z,101331.72
2018-07-15T12:04:30.576Z,101336.50
2018-07-15T12:06:58.325Z,101338.09
2018-07-15T12:09:25.949Z,101336.92
2018-07-15T12:11:53.450Z,101333.52
2018-07-15T12:14:21.207Z,101342.34
2018-07-15T12:16:48.804Z,101344.45
2018-07-15T12:19:16.496Z,101351.41
2018-07-15T12:21:44.574Z,101354.45
2018-07-15T12:24:12.219Z,101368.52
2018-07-15T12:26:39.874Z,101392.83
2018-07-15T12:29:07.860Z,101401.56
2018-07-15T12:31:35.689Z,101404.53
2018-07-15T12:34:03.340Z,101407.54
2018-07-15T12:36:31.246Z,101405.14
2018-07-15T12:38:58.795Z,101404.22
2018-07-15T12:41:26.358Z,101395.09
2018-07-15T12:43:54.167Z,101391.56
2018-07-15T12:46:21.867Z,101389.81
2018-07-15T12:48:49.480Z,101391.50
2018-07-15T12:51:17.240Z,101401.15
2018-07-15T12:53:44.853Z,101401.77
2018-07-15T12:56:12.896Z,101398.95
2018-07-15T12:58:40.868Z,101393.14
2018-07-15T13:01:08.506Z,101387.72
2018-07-15T13:03:36.069Z,101388.73
2018-07-15T13:06:04.074Z,101382.56
2018-07-15T13:08:31.626Z,101380.30
2018-07-15T13:10:59.260Z,101374.31
2018-07-15T13:13:27.148Z,101373.61
2018-07-15T13:15:54.693Z,101368.66
2018-07-15T13:18:22.422Z,101362.66
2018-07-15T13:20:50.329Z,101362.45
2018-07-15T13:23:18.106Z,101366.13
2018-07-15T13:25:45.751Z,101360.67
2018-07-15T13:28:13.658Z,101362.92
2018-07-15T13:30:41.328Z,101366.96
2018-07-15T13:33:08.957Z,101359.48
2018-07-15T13:35:36.768Z,101359.18
2018-07-15T13:38:04.363Z,101361.48
2018-07-15T13:40:31.973Z,101350.74
2018-07-15T13:42:59.683Z,101355.23
2018-07-15T13:45:27.273Z,101359.39
2018-07-15T13:47:54.911Z,101353.46
2018-07-15T13:50:22.696Z,101353.34
2018-07-15T13:52:50.600Z,101361.62
2018-07-15T13:55:18.157Z,101359.47
2018-07-15T13:57:46.120Z,101356.73
2018-07-15T14:00:13.733Z,101353.86
2018-07-15T14:02:41.342Z,101359.02
2018-07-15T14:05:08.995Z,101352.67
2018-07-15T14:07:36.552Z,101351.81
2018-07-15T14:10:04.327Z,101348.23
2018-07-15T14:12:32.207Z,101353.91
2018-07-15T14:14:59.787Z,101352.90
2018-07-15T14:17:27.541Z,101347.43
2018-07-15T14:20:10.441Z,101366.96
2018-07-15T14:22:37.974Z,101271.80
2018-07-15T14:25:06.104Z,101356.02
2018-07-15T14:27:33.948Z,101356.84
2018-07-15T14:30:01.569Z,101350.72
2018-07-15T14:32:29.692Z,101339.95
2018-07-15T14:34:57.504Z,101340.78
2018-07-15T14:37:25.126Z,101344.38
2018-07-15T14:39:52.868Z,101344.88
2018-07-15T14:42:20.519Z,101342.82
2018-07-15T14:44:48.091Z,101337.66
2018-07-15T14:47:15.921Z,101330.98
2018-07-15T14:49:43.679Z,101332.64
2018-07-15T14:52:11.241Z,101335.00
2018-07-15T14:54:38.963Z,101334.45
2018-07-15T14:57:06.903Z,101336.82
2018-07-15T14:59:34.429Z,101333.17
2018-07-15T15:02:02.234Z,101339.50
2018-07-15T15:04:30.018Z,101353.52
2018-07-15T15:06:57.647Z,101352.15
2018-07-15T15:09:25.318Z,101342.23
2018-07-15T15:11:53.060Z,101349.27
2018-07-15T15:14:20.649Z,101347.91
2018-07-15T15:16:48.332Z,101349.98
2018-07-15T15:19:15.945Z,101346.41
2018-07-15T15:21:43.482Z,101349.28
2018-07-15T15:24:11.190Z,101349.27
2018-07-15T15:26:38.987Z,101345.98
2018-07-15T15:29:06.636Z,101338.89
2018-07-15T15:31:34.371Z,101346.05
2018-07-15T15:34:01.951Z,101345.50
2018-07-15T15:36:29.509Z,101346.31
2018-07-15T15:38:57.461Z,101349.02
2018-07-15T15:41:25.139Z,101347.73
2018-07-15T15:43:52.732Z,101347.52
2018-07-15T15:46:20.479Z,101352.44
2018-07-15T15:48:48.211Z,101350.83
2018-07-15T15:51:15.812Z,101348.38
2018-07-15T15:53:43.448Z,101358.09
2018-07-15T15:56:11.116Z,101363.14
2018-07-15T15:58:38.696Z,101354.86
2018-07-15T16:01:06.507Z,101361.69
2018-07-15T16:03:34.348Z,101359.94
2018-07-15T16:06:02.183Z,101357.83
2018-07-15T16:08:29.821Z,101365.23
2018-07-15T16:10:57.331Z,101375.03
2018-07-15T16:13:24.949Z,101369.92
2018-07-15T16:15:52.743Z,101372.18
2018-07-15T16:18:20.372Z,101373.61
2018-07-15T16:20:47.984Z,101374.81
2018-07-15T16:23:15.699Z,101382.91
2018-07-15T16:25:43.481Z,101375.92
2018-07-15T16:28:11.298Z,101380.92
2018-07-15T16:30:38.952Z,101376.56
2018-07-15T16:33:06.605Z,101374.02
2018-07-15T16:35:34.221Z,101376.31
2018-07-15T16:38:01.841Z,101379.61
2018-07-15T16:40:29.612Z,101312.16
2018-07-15T16:42:57.194Z,101384.79
2018-07-15T16:45:24.822Z,101389.27
2018-07-15T16:47:52.449Z,101392.52
2018-07-15T16:50:20.083Z,101379.19
2018-07-15T16:52:47.902Z,101390.17
2018-07-15T16:55:15.659Z,101396.52
2018-07-15T16:57:43.316Z,101390.05
2018-07-15T17:00:10.970Z,101391.97
2018-07-15T17:02:38.698Z,101388.91
2018-07-15T17:05:06.472Z,101392.93
2018-07-15T17:07:34.197Z,101392.44
2018-07-15T17:10:01.925Z,101394.00
2018-07-15T17:12:29.479Z,101399.19
2018-07-15T17:14:57.100Z,101409.33
2018-07-15T17:17:24.667Z,101412.08
2018-07-15T17:19:52.241Z,101414.52
2018-07-15T17:22:19.898Z,101411.47
2018-07-15T17:24:47.648Z,101413.84
2018-07-15T17:27:15.210Z,101413.16
2018-07-15T17:29:43.039Z,101414.39
2018-07-15T17:32:10.790Z,101412.87
2018-07-15T17:34:38.292Z,101406.39
2018-07-15T17:37:06.277Z,101412.41
2018-07-15T17:39:34.083Z,101414.97
2018-07-15T17:42:01.669Z,101410.71
2018-07-15T17:44:29.376Z,101410.89
2018-07-15T17:46:57.117Z,101409.52
2018-07-15T17:49:24.669Z,101414.13
2018-07-15T17:51:52.323Z,101420.14
2018-07-15T17:54:19.953Z,101416.90
2018-07-15T17:56:47.490Z,101419.66
2018-07-15T17:59:15.083Z,101423.08
2018-07-15T18:01:42.743Z,101423.80
2018-07-15T18:04:10.313Z,101418.14
2018-07-15T18:06:38.050Z,101349.73
2018-07-15T18:09:06.335Z,101423.14
2018-07-15T18:11:33.954Z,101425.52
2018-07-15T18:14:01.742Z,101435.98
2018-07-15T18:16:29.512Z,101431.88
2018-07-15T18:18:57.161Z,101431.73
2018-07-15T18:21:24.915Z,101436.18
2018-07-15T18:23:52.675Z,101438.77
2018-07-15T18:26:20.289Z,101435.83
2018-07-15T18:28:48.034Z,101437.37
2018-07-15T18:31:15.862Z,101435.16
2018-07-15T18:33:43.384Z,101435.69
2018-07-15T18:36:11.122Z,101438.60
2018-07-15T18:38:38.881Z,101440.98
2018-07-15T18:41:06.488Z,101438.41
2018-07-15T18:43:34.333Z,101443.23
2018-07-15T18:46:01.948Z,101443.73
2018-07-15T18:48:29.534Z,101447.68
2018-07-15T18:50:57.310Z,101448.53
2018-07-15T18:53:25.063Z,101453.48
2018-07-15T18:55:52.651Z,101452.30
2018-07-15T18:58:20.269Z,101461.69
2018-07-15T19:00:48.061Z,101461.70
2018-07-15T19:03:22.381Z,101458.98
2018-07-15T19:05:50.091Z,101463.06
2018-07-15T19:08:17.623Z,101464.27
2018-07-15T19:10:45.367Z,101471.11
2018-07-15T19:13:12.955Z,101473.33
2018-07-15T19:15:40.573Z,101470.90
2018-07-15T19:18:08.209Z,101470.70
2018-07-15T19:20:36.055Z,101474.98
2018-07-15T19:23:03.602Z,101479.24
2018-07-15T19:25:31.528Z,101481.98
2018-07-15T19:27:59.342Z,101486.25
2018-07-15T19:30:27.005Z,101484.36
2018-07-15T19:32:55.135Z,101496.16
2018-07-15T19:35:22.806Z,101500.06
2018-07-15T19:37:50.451Z,101502.30
2018-07-15T19:40:18.081Z,101498.71
2018-07-15T19:42:45.790Z,101500.91
2018-07-15T19:45:13.386Z,101503.98
2018-07-15T19:47:41.040Z,101499.85
2018-07-15T19:50:08.740Z,101501.38
2018-07-15T19:52:36.378Z,101503.78
2018-07-15T19:55:04.121Z,101511.45
2018-07-15T19:57:31.758Z,101514.84
2018-07-15T19:59:59.307Z,101514.84
2018-07-15T20:02:27.133Z,101515.34
2018-07-15T20:04:54.887Z,101513.94
2018-07-15T20:07:22.400Z,101514.94
2018-07-15T20:09:49.895Z,101515.77
2018-07-15T20:12:17.552Z,101513.86
2018-07-15T20:14:45.109Z,101528.87
2018-07-15T20:17:12.974Z,101524.23
2018-07-15T20:19:40.738Z,101529.69
2018-07-15T20:22:08.570Z,101528.31
2018-07-15T20:24:36.340Z,101538.85
2018-07-15T20:27:04.042Z,101531.81
2018-07-15T20:29:31.598Z,101539.62
2018-07-15T20:31:59.299Z,101543.36
2018-07-15T20:34:27.322Z,101546.41
2018-07-15T20:36:54.784Z,101547.55
2018-07-15T20:39:22.537Z,101557.58
2018-07-15T20:41:50.170Z,101561.91
2018-07-15T20:44:17.861Z,101562.55
2018-07-15T20:46:45.447Z,101563.89
2018-07-15T20:49:12.963Z,101570.84
2018-07-15T20:51:40.512Z,101569.25
2018-07-15T20:54:08.153Z,101575.83
2018-07-15T20:56:35.738Z,101584.14
2018-07-15T20:59:03.286Z,101581.52
2018-07-15T21:01:30.993Z,101591.34
2018-07-15T21:04:02.560Z,101594.69
2018-07-15T21:06:30.080Z,101588.65
2018-07-15T21:08:58.081Z,101598.28
2018-07-15T21:11:25.881Z,101600.22
2018-07-15T21:13:53.425Z,101601.70
2018-07-15T21:16:21.255Z,101603.68
2018-07-15T21:18:49.054Z,101601.57
2018-07-15T21:21:16.656Z,101611.34
2018-07-15T21:23:44.275Z,101609.75
2018-07-15T21:26:11.949Z,101612.70
2018-07-15T21:28:39.481Z,101608.39
2018-07-15T21:31:07.222Z,101609.83
2018-07-15T21:33:34.955Z,101613.64
2018-07-15T21:36:02.895Z,101615.11
2018-07-15T21:38:30.547Z,101613.97
2018-07-15T21:40:58.205Z,101615.40
2018-07-15T21:43:25.745Z,101622.30
2018-07-15T21:45:53.418Z,101621.69
2018-07-15T21:48:21.045Z,101629.08
2018-07-15T21:50:48.599Z,101624.22
2018-07-15T21:53:16.253Z,101634.03
2018-07-15T21:55:43.839Z,101635.98
2018-07-15T21:58:11.345Z,101637.89
2018-07-15T22:00:39.103Z,101639.69
2018-07-15T22:03:06.743Z,101640.64
2018-07-15T22:05:34.388Z,101647.88
2018-07-15T22:08:13.178Z,101643.36
2018-07-15T22:10:42.961Z,101652.58
2018-07-15T22:13:10.520Z,101557.22
2018-07-15T22:15:38.369Z,101659.71
2018-07-15T22:18:06.197Z,101651.75
2018-07-15T22:20:33.893Z,101656.77
2018-07-15T22:23:01.654Z,101655.98
2018-07-15T22:25:29.410Z,101657.77
2018-07-15T22:27:57.056Z,101661.75
2018-07-15T22:30:25.084Z,101662.16
2018-07-15T22:32:52.827Z,101659.52
2018-07-15T22:35:20.496Z,101663.50
2018-07-15T22:37:48.543Z,101669.20
2018-07-15T22:40:16.336Z,101670.15
2018-07-15T22:42:43.984Z,101674.50
2018-07-15T22:45:11.846Z,101674.05
2018-07-15T22:47:39.631Z,101678.05
2018-07-15T22:50:07.562Z,101685.73
2018-07-15T22:52:35.456Z,101682.05
2018-07-15T22:55:03.308Z,101681.10
2018-07-15T22:57:30.936Z,101679.64
2018-07-15T22:59:58.722Z,101688.57
2018-07-15T23:02:26.588Z,101691.04
2018-07-15T23:06:02.503Z,101689.12
2018-07-15T23:08:31.226Z,101695.19
2018-07-15T23:10:58.938Z,101699.18
2018-07-15T23:13:26.652Z,101703.66
2018-07-15T23:15:54.589Z,101701.56
2018-07-15T23:18:22.380Z,101705.42
2018-07-15T23:20:50.599Z,101704.81
2018-07-15T23:23:18.383Z,101709.67
2018-07-15T23:25:46.067Z,101705.88
2018-07-15T23:28:14.571Z,101702.91
2018-07-15T23:30:42.604Z,101708.73
2018-07-15T23:33:10.563Z,101711.23
2018-07-15T23:35:38.393Z,101720.59
2018-07-15T23:38:06.347Z,101720.52
2018-07-15T23:40:33.952Z,101728.56
2018-07-15T23:43:01.888Z,101727.95
2018-07-15T23:45:30.604Z,101732.77
2018-07-15T23:47:58.190Z,101730.28
2018-07-15T23:50:26.000Z,101728.84
2018-07-15T23:52:54.014Z,101725.52
2018-07-15T23:55:21.667Z,101731.20
2018-07-15T23:57:49.307Z,101728.88
